createdAt,value
2022-09-28T00:01:11.135Z,1.17
2022-09-28T00:03:38.949Z,1.33
2022-09-28T00:06:11.060Z,1.47
2022-09-28T00:08:38.891Z,1.30
2022-09-28T00:11:08.459Z,1.53
2022-09-28T00:13:37.532Z,1.40
2022-09-28T00:16:07.091Z,1.40
2022-09-28T00:18:36.042Z,1.17
2022-09-28T00:21:05.678Z,1.07
2022-09-28T00:23:34.139Z,1.30
2022-09-28T00:26:05.277Z,1.17
2022-09-28T00:28:33.266Z,1.37
2022-09-28T00:31:02.359Z,1.57
2022-09-28T00:33:30.113Z,1.67
2022-09-28T00:35:58.475Z,1.40
2022-09-28T00:38:28.451Z,1.63
2022-09-28T00:40:56.785Z,1.07
2022-09-28T00:43:25.485Z,1.33
2022-09-28T00:45:59.826Z,1.53
2022-09-28T00:48:33.319Z,1.40
2022-09-28T00:51:04.892Z,1.40
2022-09-28T00:53:35.696Z,1.40
2022-09-28T00:56:07.439Z,2.27
2022-09-28T00:58:40.533Z,1.37
2022-09-28T01:01:08.725Z,1.60
2022-09-28T01:03:41.204Z,1.40
2022-09-28T01:06:10.423Z,1.33
2022-09-28T01:08:39.298Z,1.60
2022-09-28T01:11:07.247Z,2.30
2022-09-28T01:13:35.206Z,1.73
2022-09-28T01:16:13.775Z,1.57
2022-09-28T01:18:53.978Z,1.20
2022-09-28T01:21:23.371Z,2.07
2022-09-28T01:24:17.981Z,1.17
2022-09-28T01:26:56.353Z,1.40
2022-09-28T01:29:36.596Z,1.77
2022-09-28T01:32:18.263Z,1.63
2022-09-28T01:34:55.553Z,1.53
2022-09-28T01:37:27.719Z,1.80
2022-09-28T01:39:56.942Z,2.23
2022-09-28T01:42:30.593Z,1.90
2022-09-28T01:45:03.507Z,2.00
2022-09-28T01:47:37.823Z,1.80
2022-09-28T01:50:10.458Z,1.70
2022-09-28T01:52:43.060Z,1.67
2022-09-28T01:55:14.235Z,1.87
2022-09-28T01:57:46.574Z,1.67
2022-09-28T02:00:16.577Z,1.80
2022-09-28T02:02:49.375Z,1.47
2022-09-28T02:05:20.133Z,2.33
2022-09-28T02:07:56.207Z,2.10
2022-09-28T02:10:27.322Z,2.00
2022-09-28T02:13:01.855Z,1.57
2022-09-28T02:15:34.832Z,1.77
2022-09-28T02:18:02.707Z,1.70
2022-09-28T02:20:32.676Z,2.17
2022-09-28T02:23:02.767Z,2.07
2022-09-28T02:25:36.582Z,2.50
2022-09-28T02:28:07.731Z,2.10
2022-09-28T02:30:38.726Z,2.60
2022-09-28T02:33:12.398Z,2.00
2022-09-28T02:35:41.122Z,1.80
2022-09-28T02:38:08.938Z,1.40
2022-09-28T02:40:38.259Z,2.00
2022-09-28T02:43:16.230Z,2.20
2022-09-28T02:45:52.309Z,1.97
2022-09-28T02:48:43.208Z,2.10
2022-09-28T02:51:22.092Z,2.33
2022-09-28T02:54:18.863Z,2.30
2022-09-28T02:56:58.951Z,2.07
2022-09-28T02:59:41.319Z,2.37
2022-09-28T03:02:19.162Z,2.20
2022-09-28T03:04:56.834Z,2.30
2022-09-28T03:07:29.994Z,2.27
2022-09-28T03:10:03.602Z,2.47
2022-09-28T03:12:33.233Z,2.17
2022-09-28T03:15:11.524Z,2.10
2022-09-28T03:17:39.651Z,2.20
2022-09-28T03:20:08.343Z,3.03
2022-09-28T03:22:36.068Z,2.57
2022-09-28T03:25:03.760Z,2.10
2022-09-28T03:27:31.477Z,2.13
2022-09-28T03:29:59.221Z,3.43
2022-09-28T03:32:28.334Z,2.60
2022-09-28T03:34:56.706Z,2.60
2022-09-28T03:37:24.522Z,2.27
2022-09-28T03:39:52.222Z,2.23
2022-09-28T03:42:19.935Z,2.37
2022-09-28T03:44:47.770Z,2.10
2022-09-28T03:47:17.830Z,2.23
2022-09-28T03:49:47.197Z,2.37
2022-09-28T03:52:15.290Z,2.83
2022-09-28T03:54:48.335Z,2.30
2022-09-28T03:57:16.942Z,2.10
2022-09-28T03:59:44.683Z,2.53
2022-09-28T04:02:12.594Z,2.57
2022-09-28T04:04:40.386Z,2.20
2022-09-28T04:07:09.411Z,1.57
2022-09-28T04:09:37.115Z,2.00
2022-09-28T04:12:05.058Z,1.83
2022-09-28T04:14:32.795Z,2.37
2022-09-28T04:17:00.498Z,2.10
2022-09-28T04:19:28.166Z,1.80
2022-09-28T04:21:55.870Z,2.23
2022-09-28T04:24:24.913Z,1.47
2022-09-28T04:26:52.608Z,1.70
2022-09-28T04:29:19.965Z,2.77
2022-09-28T04:31:49.601Z,1.60
2022-09-28T04:34:19.173Z,2.63
2022-09-28T04:36:48.276Z,2.30
2022-09-28T04:39:17.711Z,2.40
2022-09-28T04:41:48.966Z,1.50
2022-09-28T04:44:16.732Z,1.80
2022-09-28T04:46:44.446Z,2.43
2022-09-28T04:49:12.426Z,1.57
2022-09-28T04:51:40.122Z,2.57
2022-09-28T04:54:07.987Z,1.70
2022-09-28T04:56:35.695Z,2.30
2022-09-28T04:59:04.709Z,2.20
2022-09-28T05:01:32.598Z,2.27
2022-09-28T05:04:00.705Z,2.13
2022-09-28T05:06:30.652Z,1.80
2022-09-28T05:08:58.395Z,2.33
2022-09-28T05:11:26.126Z,2.27
2022-09-28T05:13:53.805Z,1.93
2022-09-28T05:16:22.897Z,1.33
2022-09-28T05:18:50.606Z,2.00
2022-09-28T05:21:20.095Z,1.63
2022-09-28T05:23:48.573Z,1.90
2022-09-28T05:26:16.407Z,2.00
2022-09-28T05:28:44.626Z,3.00
2022-09-28T05:31:12.429Z,1.70
2022-09-28T05:33:42.358Z,2.37
2022-09-28T05:36:11.442Z,2.13
2022-09-28T05:38:39.284Z,2.00
2022-09-28T05:41:07.322Z,2.23
2022-09-28T05:43:35.118Z,2.07
2022-09-28T05:46:02.909Z,2.67
2022-09-28T05:48:30.783Z,2.83
2022-09-28T05:50:59.909Z,2.43
2022-09-28T05:53:27.835Z,2.30
2022-09-28T05:55:58.801Z,1.90
2022-09-28T05:58:26.557Z,1.90
2022-09-28T06:00:56.122Z,2.63
2022-09-28T06:03:24.418Z,2.27
2022-09-28T06:05:52.671Z,2.97
2022-09-28T06:08:21.951Z,2.10
2022-09-28T06:10:49.671Z,2.47
2022-09-28T06:13:17.371Z,2.27
2022-09-28T06:15:46.372Z,1.20
2022-09-28T06:18:15.904Z,2.50
2022-09-28T06:20:44.412Z,2.37
2022-09-28T06:23:13.568Z,1.80
2022-09-28T06:25:43.063Z,2.20
2022-09-28T06:28:13.262Z,2.43
2022-09-28T06:30:42.946Z,1.80
2022-09-28T06:33:13.322Z,2.70
2022-09-28T06:35:42.183Z,2.37
2022-09-28T06:38:10.121Z,1.97
2022-09-28T06:40:38.878Z,2.97
2022-09-28T06:43:10.894Z,2.50
2022-09-28T06:45:39.563Z,2.20
2022-09-28T06:48:08.189Z,1.70
2022-09-28T06:50:38.005Z,2.53
2022-09-28T06:53:06.889Z,2.70
2022-09-28T06:55:34.884Z,2.50
2022-09-28T06:58:04.352Z,2.73
2022-09-28T07:00:36.062Z,2.43
2022-09-28T07:03:05.209Z,2.87
2022-09-28T07:05:36.642Z,2.30
2022-09-28T07:08:04.872Z,2.80
2022-09-28T07:10:32.935Z,2.43
2022-09-28T07:13:03.587Z,2.40
2022-09-28T07:15:33.437Z,3.40
2022-09-28T07:18:03.954Z,2.37
2022-09-28T07:20:38.116Z,3.47
2022-09-28T07:23:19.023Z,3.00
2022-09-28T07:25:50.171Z,3.67
2022-09-28T07:28:18.192Z,4.13
2022-09-28T07:30:47.565Z,4.23
2022-09-28T07:33:17.473Z,3.37
2022-09-28T07:35:52.147Z,3.17
2022-09-28T07:38:20.116Z,3.07
2022-09-28T07:41:05.814Z,3.90
2022-09-28T07:43:33.825Z,3.60
2022-09-28T07:46:02.989Z,3.87
2022-09-28T07:48:37.835Z,4.03
2022-09-28T07:51:05.812Z,3.57
2022-09-28T07:53:33.854Z,4.23
2022-09-28T07:56:07.308Z,3.90
2022-09-28T07:58:36.506Z,3.40
2022-09-28T08:01:07.632Z,4.07
2022-09-28T08:03:35.855Z,3.50
2022-09-28T08:06:05.904Z,3.70
2022-09-28T08:08:35.708Z,2.90
2022-09-28T08:11:03.790Z,3.60
2022-09-28T08:13:31.559Z,3.67
2022-09-28T08:16:02.650Z,2.67
2022-09-28T08:18:31.809Z,3.10
2022-09-28T08:21:16.962Z,3.00
2022-09-28T08:23:44.666Z,3.77
2022-09-28T08:26:15.582Z,3.10
2022-09-28T08:28:44.924Z,3.30
2022-09-28T08:31:12.733Z,3.60
2022-09-28T08:33:42.865Z,3.00
2022-09-28T08:36:11.274Z,3.13
2022-09-28T08:38:39.266Z,3.13
2022-09-28T08:41:15.999Z,2.50
2022-09-28T08:44:01.265Z,3.27
2022-09-28T08:46:35.090Z,2.30
2022-09-28T08:49:26.281Z,2.93
2022-09-28T08:51:58.881Z,2.80
2022-09-28T08:54:37.836Z,2.80
2022-09-28T08:57:11.365Z,3.20
2022-09-28T08:59:47.787Z,2.70
2022-09-28T09:02:21.826Z,3.13
2022-09-28T09:04:52.608Z,3.03
2022-09-28T09:07:48.739Z,2.57
2022-09-28T09:10:34.202Z,2.70
2022-09-28T09:13:13.824Z,2.87
2022-09-28T09:15:49.779Z,2.30
2022-09-28T09:18:27.081Z,3.10
2022-09-28T09:20:59.266Z,2.13
2022-09-28T09:23:35.701Z,2.27
2022-09-28T09:26:15.484Z,2.47
2022-09-28T09:29:01.549Z,2.37
2022-09-28T09:31:42.769Z,2.10
2022-09-28T09:34:32.333Z,2.03
2022-09-28T09:37:16.619Z,2.20
2022-09-28T09:39:57.038Z,2.03
2022-09-28T09:42:41.285Z,2.17
2022-09-28T09:45:32.167Z,2.33
2022-09-28T09:48:03.270Z,1.83
2022-09-28T09:50:39.368Z,2.30
2022-09-28T09:53:17.038Z,2.23
2022-09-28T09:55:47.361Z,2.00
2022-09-28T09:58:19.636Z,1.87
2022-09-28T10:00:50.694Z,2.00
2022-09-28T10:03:23.297Z,2.17
2022-09-28T10:05:58.923Z,1.57
2022-09-28T10:08:29.215Z,1.87
2022-09-28T10:11:07.573Z,2.70
2022-09-28T10:13:35.517Z,2.10
2022-09-28T10:16:03.719Z,2.47
2022-09-28T10:18:31.407Z,2.00
2022-09-28T10:20:59.171Z,1.40
2022-09-28T10:23:30.788Z,1.37
2022-09-28T10:26:03.942Z,1.50
2022-09-28T10:28:40.429Z,1.60
2022-09-28T10:31:36.618Z,1.63
2022-09-28T10:34:05.119Z,2.23
2022-09-28T10:36:38.455Z,1.90
2022-09-28T10:39:21.969Z,2.00
2022-09-28T10:41:50.961Z,2.40
2022-09-28T10:44:21.290Z,1.80
2022-09-28T10:46:57.526Z,2.03
2022-09-28T10:49:26.690Z,2.10
2022-09-28T10:51:56.228Z,1.80
2022-09-28T10:54:27.024Z,2.20
2022-09-28T10:56:56.574Z,2.13
2022-09-28T10:59:33.064Z,2.70
2022-09-28T11:02:03.399Z,2.03
2022-09-28T11:04:40.778Z,2.10
2022-09-28T11:07:17.833Z,2.30
2022-09-28T11:09:49.081Z,1.60
2022-09-28T11:12:20.372Z,2.13
2022-09-28T11:14:52.992Z,2.13
2022-09-28T11:17:28.150Z,1.83
2022-09-28T11:19:56.746Z,1.60
2022-09-28T11:22:28.781Z,2.03
2022-09-28T11:25:21.080Z,1.87
2022-09-28T11:27:58.810Z,1.80
2022-09-28T11:30:30.206Z,1.80
2022-09-28T11:33:04.329Z,1.63
2022-09-28T11:35:43.389Z,1.97
2022-09-28T11:38:41.714Z,1.77
2022-09-28T11:41:42.561Z,1.63
2022-09-28T11:44:33.728Z,1.70
2022-09-28T11:47:13.372Z,2.00
2022-09-28T11:49:47.795Z,2.07
2022-09-28T11:52:21.109Z,1.70
2022-09-28T11:54:53.641Z,1.87
2022-09-28T11:57:28.160Z,1.30
2022-09-28T12:00:01.656Z,1.40
2022-09-28T12:02:35.763Z,1.27
2022-09-28T12:05:17.211Z,1.10
2022-09-28T12:07:52.204Z,1.00
2022-09-28T12:10:31.275Z,1.20
2022-09-28T12:13:04.717Z,1.43
2022-09-28T12:16:12.953Z,1.07
2022-09-28T12:18:39.861Z,0.90
2022-09-28T12:21:20.410Z,1.00
2022-09-28T12:23:51.320Z,1.17
2022-09-28T12:26:29.637Z,1.00
2022-09-28T12:29:01.869Z,1.07
2022-09-28T12:31:34.983Z,0.93
2022-09-28T12:34:03.829Z,1.20
2022-09-28T12:36:47.419Z,1.20
2022-09-28T12:39:53.452Z,1.00
2022-09-28T12:42:40.042Z,1.30
2022-09-28T12:45:22.791Z,1.20
2022-09-28T12:48:18.218Z,1.40
2022-09-28T12:50:58.413Z,1.33
2022-09-28T12:53:55.833Z,1.30
2022-09-28T12:56:31.718Z,1.50
2022-09-28T12:59:12.513Z,1.30
2022-09-28T13:01:54.707Z,1.30
2022-09-28T13:04:46.404Z,1.70
2022-09-28T13:07:21.405Z,1.67
2022-09-28T13:10:01.793Z,1.50
2022-09-28T13:12:42.135Z,1.63
2022-09-28T13:15:29.533Z,1.23
2022-09-28T13:18:06.347Z,1.00
2022-09-28T13:21:07.174Z,1.50
2022-09-28T13:23:39.116Z,1.80
2022-09-28T13:26:17.807Z,1.40
2022-09-28T13:28:47.158Z,1.43
2022-09-28T13:31:21.095Z,1.80
2022-09-28T13:33:50.913Z,1.80
2022-09-28T13:36:38.690Z,1.60
2022-09-28T13:39:47.213Z,1.90
2022-09-28T13:42:31.179Z,1.60
2022-09-28T13:45:15.854Z,1.63
2022-09-28T13:47:57.689Z,1.73
2022-09-28T13:50:33.219Z,1.90
2022-09-28T13:53:13.144Z,1.63
2022-09-28T13:55:57.120Z,1.50
2022-09-28T13:58:29.206Z,1.40
2022-09-28T14:01:03.382Z,1.03
2022-09-28T14:03:45.143Z,1.23
2022-09-28T14:06:25.711Z,1.40
2022-09-28T14:09:25.126Z,1.00
2022-09-28T14:11:59.622Z,1.50
2022-09-28T14:14:48.814Z,1.57
2022-09-28T14:17:51.037Z,1.40
2022-09-28T14:20:21.481Z,1.17
2022-09-28T14:23:12.081Z,1.50
2022-09-28T14:25:45.615Z,1.00
2022-09-28T14:28:40.173Z,1.27
2022-09-28T14:31:10.679Z,1.30
2022-09-28T14:33:42.604Z,1.30
2022-09-28T14:36:45.402Z,1.20
2022-09-28T14:39:40.299Z,1.50
2022-09-28T14:42:15.614Z,1.30
2022-09-28T14:45:35.597Z,1.30
2022-09-28T14:48:15.309Z,1.17
2022-09-28T14:50:43.443Z,1.20
2022-09-28T14:53:23.973Z,0.40
2022-09-28T14:55:55.364Z,1.07
2022-09-28T14:58:25.700Z,1.47
2022-09-28T15:01:03.373Z,1.10
2022-09-28T15:03:34.003Z,0.93
2022-09-28T15:06:02.438Z,0.70
2022-09-28T15:08:40.455Z,0.77
2022-09-28T15:11:14.742Z,0.83
2022-09-28T15:13:43.650Z,1.10
2022-09-28T15:16:14.910Z,1.30
2022-09-28T15:19:08.760Z,1.90
2022-09-28T15:21:38.687Z,2.17
2022-09-28T15:24:27.982Z,2.03
2022-09-28T15:26:56.702Z,2.87
2022-09-28T15:29:25.732Z,1.80
2022-09-28T15:31:55.131Z,1.77
2022-09-28T15:34:48.597Z,2.40
2022-09-28T15:37:20.166Z,2.37
2022-09-28T15:39:48.621Z,2.10
2022-09-28T15:42:18.557Z,2.13
2022-09-28T15:45:07.981Z,2.07
2022-09-28T15:47:38.905Z,2.00
2022-09-28T15:50:09.168Z,2.10
2022-09-28T15:52:40.588Z,2.00
2022-09-28T15:55:20.328Z,1.97
2022-09-28T15:57:48.356Z,2.50
2022-09-28T16:00:28.206Z,2.30
2022-09-28T16:03:20.960Z,2.10
2022-09-28T16:05:51.833Z,2.33
2022-09-28T16:08:24.619Z,2.53
2022-09-28T16:11:06.226Z,2.73
2022-09-28T16:13:37.699Z,2.27
2022-09-28T16:16:05.948Z,2.43
2022-09-28T16:18:40.030Z,2.83
2022-09-28T16:21:41.082Z,2.33
2022-09-28T16:24:20.385Z,2.93
2022-09-28T16:26:49.153Z,2.73
2022-09-28T16:29:26.974Z,2.60
2022-09-28T16:31:55.345Z,3.70
2022-09-28T16:34:28.518Z,2.97
2022-09-28T16:36:56.558Z,4.67
2022-09-28T16:39:25.404Z,3.43
2022-09-28T16:41:56.166Z,3.20
2022-09-28T16:44:28.443Z,4.93
2022-09-28T16:47:00.629Z,4.63
2022-09-28T16:49:32.135Z,4.17
2022-09-28T16:52:00.384Z,3.40
2022-09-28T16:54:47.205Z,4.07
2022-09-28T16:57:16.613Z,4.40
2022-09-28T16:59:44.372Z,4.43
2022-09-28T17:02:42.163Z,3.40
2022-09-28T17:05:08.488Z,3.03
2022-09-28T17:07:37.014Z,3.13
2022-09-28T17:10:13.930Z,3.20
2022-09-28T17:12:42.220Z,3.40
2022-09-28T17:15:10.516Z,3.27
2022-09-28T17:17:39.148Z,3.43
2022-09-28T17:20:18.526Z,3.17
2022-09-28T17:22:46.384Z,3.27
2022-09-28T17:25:14.610Z,3.03
2022-09-28T17:27:46.267Z,3.17
2022-09-28T17:30:15.456Z,2.80
2022-09-28T17:32:45.641Z,2.93
2022-09-28T17:35:25.353Z,2.80
2022-09-28T17:37:53.596Z,3.43
2022-09-28T17:40:23.595Z,2.93
2022-09-28T17:42:53.787Z,3.10
2022-09-28T17:45:22.478Z,3.17
2022-09-28T17:47:50.543Z,3.57
2022-09-28T17:50:23.311Z,3.37
2022-09-28T17:52:52.983Z,4.40
2022-09-28T17:55:22.279Z,2.83
2022-09-28T17:57:50.586Z,3.87
2022-09-28T18:00:19.026Z,4.10
2022-09-28T18:02:47.135Z,4.17
2022-09-28T18:05:15.927Z,3.80
2022-09-28T18:07:47.776Z,3.57
2022-09-28T18:10:19.703Z,3.63
2022-09-28T18:12:47.989Z,4.17
2022-09-28T18:15:16.705Z,3.73
2022-09-28T18:17:45.061Z,3.03
2022-09-28T18:20:14.398Z,2.93
2022-09-28T18:22:42.559Z,3.10
2022-09-28T18:25:12.276Z,3.57
2022-09-28T18:27:40.371Z,4.80
2022-09-28T18:30:09.306Z,3.43
2022-09-28T18:32:37.804Z,3.57
2022-09-28T18:35:06.755Z,3.80
2022-09-28T18:37:38.233Z,4.13
2022-09-28T18:40:07.206Z,4.23
2022-09-28T18:42:36.690Z,3.80
2022-09-28T18:45:06.217Z,3.20
2022-09-28T18:47:34.953Z,4.53
2022-09-28T18:50:02.755Z,3.23
2022-09-28T18:52:30.633Z,4.00
2022-09-28T18:54:58.603Z,3.47
2022-09-28T18:57:27.410Z,3.50
2022-09-28T18:59:56.440Z,2.67
2022-09-28T19:02:24.311Z,2.97
2022-09-28T19:04:52.219Z,4.30
2022-09-28T19:07:21.121Z,4.00
2022-09-28T19:09:48.889Z,3.10
2022-09-28T19:12:16.666Z,3.27
2022-09-28T19:14:44.454Z,3.60
2022-09-28T19:17:13.765Z,3.67
2022-09-28T19:19:42.644Z,3.43
2022-09-28T19:22:10.352Z,3.80
2022-09-28T19:24:38.088Z,4.00
2022-09-28T19:27:05.853Z,3.43
2022-09-28T19:29:33.704Z,3.43
2022-09-28T19:32:01.622Z,3.53
2022-09-28T19:34:30.731Z,3.13
2022-09-28T19:36:58.631Z,3.43
2022-09-28T19:39:26.381Z,2.80
2022-09-28T19:41:54.252Z,3.27
2022-09-28T19:44:25.634Z,3.53
2022-09-28T19:46:55.455Z,3.70
2022-09-28T19:49:24.768Z,3.53
2022-09-28T19:52:13.811Z,3.77
2022-09-28T19:54:44.399Z,2.90
2022-09-28T19:57:15.948Z,3.83
2022-09-28T19:59:43.965Z,3.50
2022-09-28T20:02:12.204Z,3.70
2022-09-28T20:04:39.973Z,3.93
2022-09-28T20:07:09.083Z,3.67
2022-09-28T20:09:36.914Z,3.70
2022-09-28T20:12:05.124Z,3.40
2022-09-28T20:14:37.956Z,2.77
2022-09-28T20:17:07.439Z,2.83
2022-09-28T20:19:35.990Z,3.47
2022-09-28T20:22:03.739Z,3.70
2022-09-28T20:24:33.294Z,2.90
2022-09-28T20:27:01.909Z,3.80
2022-09-28T20:29:31.377Z,2.33
2022-09-28T20:31:59.491Z,3.13
2022-09-28T20:34:27.498Z,3.73
2022-09-28T20:36:55.227Z,2.87
2022-09-28T20:39:22.977Z,2.87
2022-09-28T20:41:52.063Z,2.70
2022-09-28T20:44:19.942Z,3.17
2022-09-28T20:46:50.939Z,2.97
2022-09-28T20:49:18.683Z,3.60
2022-09-28T20:51:46.399Z,3.23
2022-09-28T20:54:14.175Z,2.93
2022-09-28T20:56:41.992Z,2.23
2022-09-28T20:59:12.864Z,2.80
2022-09-28T21:01:41.329Z,3.43
2022-09-28T21:04:11.302Z,2.63
2022-09-28T21:06:40.557Z,2.40
2022-09-28T21:09:10.175Z,2.50
2022-09-28T21:11:40.164Z,2.60
2022-09-28T21:14:09.511Z,2.87
2022-09-28T21:16:39.170Z,2.80
2022-09-28T21:19:07.085Z,2.97
2022-09-28T21:21:34.874Z,2.40
2022-09-28T21:24:03.044Z,1.73
2022-09-28T21:26:32.196Z,2.13
2022-09-28T21:29:01.168Z,3.10
2022-09-28T21:31:31.438Z,2.27
2022-09-28T21:34:01.092Z,2.57
2022-09-28T21:36:28.833Z,2.20
2022-09-28T21:38:56.618Z,3.13
2022-09-28T21:41:25.101Z,2.60
2022-09-28T21:43:52.862Z,3.03
2022-09-28T21:46:20.669Z,2.87
2022-09-28T21:48:52.361Z,2.77
2022-09-28T21:51:21.567Z,2.50
2022-09-28T21:53:49.619Z,2.23
2022-09-28T21:56:17.594Z,2.43
2022-09-28T21:58:45.382Z,2.43
2022-09-28T22:01:17.948Z,2.40
2022-09-28T22:03:47.844Z,2.50
2022-09-28T22:06:17.839Z,2.10
2022-09-28T22:08:47.811Z,2.03
2022-09-28T22:11:17.824Z,2.30
2022-09-28T22:13:47.189Z,2.17
2022-09-28T22:16:16.431Z,2.17
2022-09-28T22:18:45.005Z,2.60
2022-09-28T22:21:15.261Z,2.07
2022-09-28T22:23:43.612Z,2.23
2022-09-28T22:26:17.753Z,3.23
2022-09-28T22:28:46.780Z,3.30
2022-09-28T22:31:14.833Z,2.27
2022-09-28T22:33:42.975Z,2.80
2022-09-28T22:36:11.007Z,2.90
2022-09-28T22:38:39.592Z,2.60
2022-09-28T22:41:07.612Z,2.20
2022-09-28T22:43:36.715Z,2.30
2022-09-28T22:46:06.006Z,2.87
2022-09-28T22:48:34.684Z,2.60
2022-09-28T22:51:02.823Z,2.93
2022-09-28T22:53:31.217Z,3.23
2022-09-28T22:56:00.666Z,3.00
2022-09-28T22:58:28.781Z,2.80
2022-09-28T23:00:57.934Z,2.57
2022-09-28T23:03:25.703Z,3.10
2022-09-28T23:05:54.193Z,2.53
2022-09-28T23:08:22.520Z,2.33
2022-09-28T23:10:50.448Z,3.77
2022-09-28T23:13:18.824Z,3.00
2022-09-28T23:15:57.590Z,2.33
2022-09-28T23:18:26.246Z,3.10
2022-09-28T23:20:54.833Z,2.80
2022-09-28T23:23:23.123Z,3.13
2022-09-28T23:25:51.271Z,3.00
2022-09-28T23:28:19.746Z,2.80
2022-09-28T23:30:47.974Z,3.00
2022-09-28T23:33:18.861Z,2.80
2022-09-28T23:35:47.019Z,2.43
2022-09-28T23:38:17.892Z,2.47
2022-09-28T23:40:46.387Z,3.13
2022-09-28T23:43:15.275Z,2.80
2022-09-28T23:45:43.736Z,2.73
2022-09-28T23:48:12.104Z,2.47
2022-09-28T23:50:41.350Z,2.50
2022-09-28T23:53:09.304Z,2.43
2022-09-28T23:55:37.042Z,3.20
2022-09-28T23:58:04.802Z,2.90
